Time;durP1;ratioP1;P1;durP2;ratioP2;P2;SDS_P1;SDS_P2;PMS_P1;PMS_P2;Temp;Humidity;BMP_temperature;BMP_pressure;BME280_temperature;BME280_humidity;BME280_pressure;Samples;Min_cycle;Max_cycle;Signal;HPM_P1;HPM_P2
2023/04/22 00:02:15;;;;;;;10.77;6.17;;;;;;;12.10;71.09;96736.59;5087938;28;20183;-68
2023/04/22 00:04:45;;;;;;;9.23;5.33;;;;;;;12.16;70.68;96733.66;5069595;28;20197;-67
2023/04/22 00:07:14;;;;;;;8.90;5.57;;;;;;;12.21;70.96;96727.28;5086904;28;20595;-68
2023/04/22 00:09:42;;;;;;;8.50;5.20;;;;;;;12.15;71.70;96748.41;5087803;28;20209;-68
2023/04/22 00:12:12;;;;;;;7.67;4.73;;;;;;;12.25;70.82;96739.16;5086501;28;20186;-68
2023/04/22 00:14:39;;;;;;;8.97;5.40;;;;;;;12.17;71.06;96743.13;5088013;28;20212;-67
2023/04/22 00:17:06;;;;;;;12.33;6.17;;;;;;;11.90;72.49;96749.84;5086497;28;20208;-68
2023/04/22 00:19:33;;;;;;;10.53;5.60;;;;;;;11.69;72.73;96738.06;5087674;28;20200;-68
2023/04/22 00:22:01;;;;;;;7.17;4.63;;;;;;;11.55;73.82;96733.59;5087225;28;20224;-68
2023/04/22 00:24:28;;;;;;;8.90;4.30;;;;;;;11.54;73.43;96739.69;5068703;28;20270;-69
2023/04/22 00:26:55;;;;;;;9.53;5.17;;;;;;;11.62;72.91;96731.53;5087379;28;20565;-67
2023/04/22 00:29:24;;;;;;;8.13;5.00;;;;;;;11.77;72.66;96734.13;5068337;28;20180;-68
2023/04/22 00:31:51;;;;;;;6.87;4.67;;;;;;;11.86;72.30;96748.34;5087664;28;20201;-67
2023/04/22 00:34:18;;;;;;;10.80;4.57;;;;;;;11.85;72.37;96754.47;5086287;28;20191;-67
2023/04/22 00:36:46;;;;;;;9.77;5.10;;;;;;;11.96;71.78;96767.69;5069169;28;20217;-67
2023/04/22 00:39:14;;;;;;;7.43;4.40;;;;;;;11.96;71.35;96752.09;5069313;28;20258;-67
2023/04/22 00:41:41;;;;;;;11.17;5.20;;;;;;;11.96;71.45;96762.47;5086510;28;20189;-67
2023/04/22 00:44:10;;;;;;;8.73;4.60;;;;;;;11.99;71.24;96757.13;5087492;28;20195;-67
2023/04/22 00:46:38;;;;;;;6.83;4.33;;;;;;;12.03;70.87;96763.84;5085928;28;20188;-67
2023/04/22 00:49:06;;;;;;;8.33;4.43;;;;;;;11.89;71.09;96756.78;5052551;28;20193;-66
2023/04/22 00:51:34;;;;;;;9.47;4.67;;;;;;;11.94;70.97;96774.72;5068103;28;20236;-68
2023/04/22 00:54:02;;;;;;;6.60;4.33;;;;;;;11.90;71.39;96773.22;5069457;28;20693;-69
2023/04/22 00:56:30;;;;;;;7.67;4.53;;;;;;;11.76;71.71;96765.34;5068758;28;20216;-68
2023/04/22 00:58:58;;;;;;;10.73;5.60;;;;;;;11.61;72.46;96771.31;5086192;28;20180;-68
2023/04/22 01:01:26;;;;;;;10.70;5.80;;;;;;;11.38;73.40;96776.00;5087126;28;20317;-66
2023/04/22 01:03:53;;;;;;;8.50;5.30;;;;;;;11.15;74.48;96768.59;5085757;28;20186;-68
2023/04/22 01:06:22;;;;;;;9.17;5.60;;;;;;;11.12;74.96;96763.59;5069107;28;20275;-67
2023/04/22 01:08:50;;;;;;;7.97;4.77;;;;;;;11.05;75.24;96758.78;5085994;28;20200;-68
2023/04/22 01:11:17;;;;;;;10.47;5.30;;;;;;;10.90;76.23;96759.59;5087103;28;20671;-66
2023/04/22 01:13:45;;;;;;;9.67;5.03;;;;;;;10.96;76.57;96767.88;5086736;28;20227;-69
2023/04/22 01:16:12;;;;;;;7.27;4.53;;;;;;;10.93;77.29;96760.25;5068172;28;20239;-71
2023/04/22 01:18:39;;;;;;;7.63;5.10;;;;;;;10.77;77.95;96769.75;5087125;28;20198;-67
2023/04/22 01:21:06;;;;;;;7.73;4.73;;;;;;;10.60;79.39;96772.31;5086114;28;20301;-67
2023/04/22 01:23:33;;;;;;;8.30;4.83;;;;;;;10.29;80.96;96743.69;5087206;28;20220;-68
2023/04/22 01:26:01;;;;;;;6.43;4.53;;;;;;;10.38;81.46;96757.03;5085820;28;20213;-68
2023/04/22 01:28:28;;;;;;;9.67;5.10;;;;;;;10.37;81.77;96755.34;5086979;28;20180;-67
2023/04/22 01:30:55;;;;;;;5.83;4.23;;;;;;;10.49;81.15;96752.16;5086413;28;20664;-67
2023/04/22 01:33:22;;;;;;;5.20;4.70;;;;;;;10.45;81.03;96753.22;5068299;28;20218;-67
2023/04/22 01:35:50;;;;;;;8.17;5.37;;;;;;;10.54;81.00;96750.19;5086886;28;20672;-68
2023/04/22 01:38:17;;;;;;;7.67;5.07;;;;;;;10.49;81.83;96752.16;5086922;28;20663;-68
2023/04/22 01:40:44;;;;;;;7.50;4.87;;;;;;;10.58;81.55;96745.69;5090708;28;20203;-68
2023/04/22 01:43:11;;;;;;;8.23;5.03;;;;;;;10.60;81.04;96741.25;5089479;28;20185;-68
2023/04/22 01:45:38;;;;;;;7.37;5.10;;;;;;;10.69;80.54;96740.81;5072543;28;20180;-68
2023/04/22 01:48:05;;;;;;;6.10;5.03;;;;;;;10.70;80.21;96726.94;5090025;28;20189;-68
2023/04/22 01:50:33;;;;;;;6.77;4.93;;;;;;;10.64;80.12;96727.25;5089864;28;20188;-69
2023/04/22 01:53:00;;;;;;;7.53;5.60;;;;;;;10.77;79.36;96720.53;5072369;28;20196;-68
2023/04/22 01:55:28;;;;;;;9.00;5.00;;;;;;;10.97;79.46;96730.69;5071420;28;20726;-68
2023/04/22 01:57:55;;;;;;;9.30;5.13;;;;;;;10.88;79.30;96718.19;5090322;28;20619;-68
2023/04/22 02:00:22;;;;;;;10.03;5.53;;;;;;;10.95;79.24;96729.09;5070913;28;20573;-67
2023/04/22 02:02:49;;;;;;;6.77;5.40;;;;;;;10.86;79.72;96720.03;5090581;28;20195;-67
2023/04/22 02:05:16;;;;;;;7.17;5.60;;;;;;;10.87;79.90;96721.72;5071450;28;20275;-67
2023/04/22 02:07:45;;;;;;;7.97;5.40;;;;;;;10.85;79.92;96699.41;5071709;28;20194;-68
2023/04/22 02:10:15;;;;;;;9.80;5.53;;;;;;;10.79;80.10;96700.56;5072219;28;20193;-70
2023/04/22 02:12:43;;;;;;;9.63;5.53;;;;;;;10.95;79.99;96716.13;5088930;28;20261;-67
2023/04/22 02:15:13;;;;;;;9.07;5.40;;;;;;;10.98;80.22;96718.56;5072215;28;20251;-68
2023/04/22 02:17:41;;;;;;;5.67;4.87;;;;;;;11.07;80.17;96711.16;5088797;28;20235;-69
2023/04/22 02:20:10;;;;;;;8.17;5.33;;;;;;;11.22;80.09;96712.94;5089934;28;20247;-69
2023/04/22 02:22:38;;;;;;;8.00;5.03;;;;;;;11.40;79.96;96716.28;5089102;28;20320;-68
2023/04/22 02:25:06;;;;;;;9.47;5.27;;;;;;;11.58;79.57;96714.44;5089331;28;20216;-69
2023/04/22 02:27:33;;;;;;;7.83;5.67;;;;;;;11.68;79.40;96726.03;5089760;28;20554;-68
2023/04/22 02:30:00;;;;;;;11.03;5.97;;;;;;;11.73;79.26;96729.19;5053986;28;20655;-68
2023/04/22 02:32:30;;;;;;;10.50;5.10;;;;;;;11.64;79.50;96716.72;5072031;28;20210;-68
2023/04/22 02:34:57;;;;;;;10.17;5.27;;;;;;;11.70;80.09;96731.97;5088441;28;20186;-68
2023/04/22 02:37:25;;;;;;;10.70;4.93;;;;;;;11.63;80.92;96717.63;5089546;28;20216;-68
2023/04/22 02:39:53;;;;;;;10.17;5.13;;;;;;;11.66;80.66;96738.22;5088749;28;20591;-69
2023/04/22 02:42:20;;;;;;;6.93;5.23;;;;;;;11.56;81.67;96726.66;5089153;28;20193;-68
2023/04/22 02:44:47;;;;;;;8.70;4.77;;;;;;;11.48;82.05;96733.09;5071291;28;20201;-69
2023/04/22 02:47:15;;;;;;;8.17;5.10;;;;;;;11.58;80.60;96730.00;5070212;28;20264;-68
2023/04/22 02:49:42;;;;;;;11.40;5.10;;;;;;;11.41;81.10;96726.59;5088838;28;20190;-69
2023/04/22 02:52:09;;;;;;;9.37;4.40;;;;;;;11.39;80.44;96731.03;5087853;28;20706;-68
2023/04/22 02:54:36;;;;;;;10.80;4.57;;;;;;;11.35;79.52;96724.28;5089072;28;20199;-68
2023/04/22 02:57:03;;;;;;;7.40;4.40;;;;;;;11.28;79.54;96717.78;5088302;28;20684;-68
2023/04/22 02:59:30;;;;;;;8.50;4.57;;;;;;;11.40;79.31;96727.50;5070484;28;20246;-69
2023/04/22 03:01:59;;;;;;;6.63;4.23;;;;;;;11.39;79.71;96732.75;5070736;28;20224;-69
2023/04/22 03:04:41;;;;;;;5.07;4.00;;;;;;;11.55;79.88;96732.75;5069496;28;20612;-67
2023/04/22 03:07:08;;;;;;;13.83;5.57;;;;;;;11.68;79.36;96719.09;5070891;28;20181;-69
2023/04/22 03:09:35;;;;;;;7.37;4.43;;;;;;;11.71;78.94;96723.25;5087697;28;20227;-68
2023/04/22 03:12:03;;;;;;;7.50;5.33;;;;;;;11.72;79.40;96727.53;5088817;28;20292;-68
2023/04/22 03:14:30;;;;;;;6.43;4.40;;;;;;;11.72;79.01;96736.16;5070197;28;20273;-69
2023/04/22 03:16:58;;;;;;;8.13;3.70;;;;;;;11.66;78.92;96733.03;5088152;28;20205;-70
2023/04/22 03:19:25;;;;;;;9.53;4.87;;;;;;;11.41;79.94;96733.53;5088841;28;20200;-69
2023/04/22 03:21:52;;;;;;;5.07;4.57;;;;;;;11.25;80.90;96727.50;5087482;28;20769;-69
2023/04/22 03:24:20;;;;;;;11.33;5.20;;;;;;;11.12;81.35;96737.66;5088686;28;20249;-71
2023/04/22 03:26:50;;;;;;;7.13;4.73;;;;;;;11.14;81.99;96734.97;5069159;28;20287;-68
2023/04/22 03:29:18;;;;;;;6.67;4.97;;;;;;;10.92;83.22;96734.44;5070601;28;20192;-69
2023/04/22 03:31:45;;;;;;;10.03;5.73;;;;;;;10.78;83.90;96732.53;5088136;28;20193;-67
2023/04/22 03:34:12;;;;;;;16.50;6.10;;;;;;;10.65;84.41;96741.88;5069845;28;20188;-69
2023/04/22 03:36:40;;;;;;;7.70;5.60;;;;;;;10.49;85.63;96743.53;5070329;28;20196;-68
2023/04/22 03:39:07;;;;;;;9.67;5.70;;;;;;;10.22;87.05;96744.94;5069101;28;20246;-67
2023/04/22 03:41:34;;;;;;;11.77;6.63;;;;;;;10.10;88.38;96741.16;5069449;28;20181;-68
2023/04/22 03:44:01;;;;;;;8.87;6.37;;;;;;;9.95;89.87;96741.06;5082345;28;20287;-67
2023/04/22 03:46:30;;;;;;;11.23;6.97;;;;;;;10.11;89.87;96737.69;5070256;28;20275;-68
2023/04/22 03:49:07;;;;;;;13.50;6.93;;;;;;;10.14;89.21;96729.75;5068582;28;20210;-70
2023/04/22 03:51:34;;;;;;;10.10;6.03;;;;;;;10.42;88.39;96747.38;5076845;28;20188;-67
2023/04/22 03:54:06;;;;;;;7.93;6.17;;;;;;;10.45;87.70;96745.44;5070229;28;20714;-71
2023/04/22 03:56:37;;;;;;;13.93;6.77;;;;;;;10.52;87.38;96751.16;5068802;28;20250;-69
2023/04/22 03:59:07;;;;;;;9.50;6.70;;;;;;;10.60;86.59;96751.63;5052636;28;20263;-67
2023/04/22 04:01:35;;;;;;;8.47;6.77;;;;;;;10.83;85.40;96753.03;5060252;28;20185;-68
2023/04/22 04:04:09;;;;;;;7.27;6.30;;;;;;;11.08;84.49;96762.06;5077951;28;20188;-68
2023/04/22 04:06:51;;;;;;;11.27;6.47;;;;;;;11.27;83.74;96767.94;5079702;28;20199;-70
2023/04/22 04:09:19;;;;;;;9.10;6.57;;;;;;;11.34;83.77;96773.66;5095242;28;20230;-69
2023/04/22 04:12:02;;;;;;;8.97;6.50;;;;;;;11.45;82.64;96767.00;5053966;28;20228;-67
2023/04/22 04:14:34;;;;;;;7.43;6.07;;;;;;;11.51;81.49;96771.00;5068581;28;20192;-67
2023/04/22 04:17:03;;;;;;;10.57;6.93;;;;;;;11.65;81.36;96771.09;5066799;28;20204;-67
2023/04/22 04:19:33;;;;;;;9.97;6.50;;;;;;;11.57;81.30;96775.84;5058420;28;20189;-71
2023/04/22 04:22:01;;;;;;;10.53;7.03;;;;;;;11.68;81.56;96772.72;5058812;28;20193;-68
2023/04/22 04:24:35;;;;;;;10.50;7.27;;;;;;;11.73;80.96;96775.88;5059245;28;20200;-70
2023/04/22 04:27:10;;;;;;;10.67;7.60;;;;;;;11.81;80.58;96771.94;5056127;28;20708;-68
2023/04/22 04:29:44;;;;;;;8.60;6.43;;;;;;;11.74;81.33;96772.38;5076423;28;20196;-71
2023/04/22 04:32:17;;;;;;;11.07;8.07;;;;;;;11.71;81.23;96777.72;5059955;28;20217;-71
2023/04/22 04:34:44;;;;;;;14.83;8.07;;;;;;;11.76;81.49;96780.91;5057346;28;20584;-70
2023/04/22 04:37:13;;;;;;;11.87;7.30;;;;;;;11.84;81.20;96784.78;5057855;28;20185;-70
2023/04/22 04:39:54;;;;;;;11.53;7.03;;;;;;;11.86;80.76;96782.09;5057544;28;20220;-68
2023/04/22 04:42:24;;;;;;;10.73;7.07;;;;;;;12.05;79.52;96780.16;5059988;28;20189;-68
2023/04/22 04:44:59;;;;;;;12.77;6.70;;;;;;;12.16;79.77;96789.00;5041858;28;20669;-71
2023/04/22 04:47:32;;;;;;;8.90;6.03;;;;;;;12.31;79.90;96794.25;5065846;28;20203;-72
2023/04/22 04:50:11;;;;;;;10.90;6.20;;;;;;;12.69;78.16;96785.13;5069149;28;20215;-68
2023/04/22 04:52:38;;;;;;;10.13;6.07;;;;;;;12.88;77.40;96790.94;5068025;28;20261;-69
2023/04/22 04:55:06;;;;;;;14.60;6.77;;;;;;;12.95;76.89;96781.81;5065365;28;20189;-69
2023/04/22 04:57:34;;;;;;;11.80;6.03;;;;;;;12.79;77.34;96781.91;5057741;28;20228;-68
2023/04/22 05:00:05;;;;;;;11.27;5.70;;;;;;;12.83;77.59;96780.78;5064673;28;20293;-67
2023/04/22 05:02:33;;;;;;;10.20;6.60;;;;;;;12.93;76.75;96789.72;5051621;28;20202;-68
2023/04/22 05:05:01;;;;;;;11.33;7.07;;;;;;;12.98;76.81;96787.66;5068658;28;20215;-68
2023/04/22 05:07:29;;;;;;;10.37;6.43;;;;;;;13.34;75.82;96791.63;5068865;28;20198;-69
2023/04/22 05:09:57;;;;;;;13.67;7.73;;;;;;;13.46;75.04;96793.47;5067197;28;20706;-68
2023/04/22 05:12:24;;;;;;;13.03;7.07;;;;;;;13.72;74.18;96784.94;5058204;28;20253;-70
2023/04/22 05:14:52;;;;;;;9.07;5.77;;;;;;;13.88;73.77;96798.66;5061277;28;20205;-68
2023/04/22 05:17:20;;;;;;;10.30;5.97;;;;;;;13.88;73.69;96783.03;5067562;28;20533;-69
2023/04/22 05:19:47;;;;;;;5.97;5.37;;;;;;;13.89;73.13;96795.09;5071763;28;20200;-68
2023/04/22 05:22:16;;;;;;;8.20;5.97;;;;;;;14.39;72.14;96795.38;5071813;28;20196;-70
2023/04/22 05:24:44;;;;;;;7.47;5.70;;;;;;;14.63;71.19;96793.75;5072656;28;20284;-69
2023/04/22 05:27:11;;;;;;;7.47;5.53;;;;;;;14.87;69.76;96793.06;5054438;28;20554;-70
2023/04/22 05:29:38;;;;;;;11.50;5.53;;;;;;;15.18;68.23;96790.09;5090578;28;20200;-68
2023/04/22 05:32:07;;;;;;;9.50;5.50;;;;;;;15.19;67.58;96787.34;5054815;28;20181;-68
2023/04/22 05:34:35;;;;;;;7.57;4.83;;;;;;;15.08;68.17;96786.44;5090780;28;20662;-71
2023/04/22 05:37:03;;;;;;;8.17;5.23;;;;;;;15.29;68.13;96798.03;5070945;28;20684;-72
2023/04/22 05:39:31;;;;;;;14.20;5.47;;;;;;;15.38;67.65;96794.78;5071781;28;20220;-68
2023/04/22 05:42:01;;;;;;;14.40;5.70;;;;;;;15.40;67.12;96796.34;5072276;28;20188;-70
2023/04/22 05:44:29;;;;;;;9.20;4.93;;;;;;;15.47;66.85;96791.56;5071050;28;20193;-72
2023/04/22 05:46:58;;;;;;;11.23;6.03;;;;;;;15.39;67.35;96796.44;5055746;28;20242;-70
2023/04/22 05:49:26;;;;;;;9.37;4.50;;;;;;;15.61;66.85;96801.88;5070745;28;20249;-72
2023/04/22 05:52:11;;;;;;;6.97;4.90;;;;;;;15.81;66.32;96793.50;5071910;28;20193;-69
2023/04/22 05:55:16;;;;;;;9.67;4.70;;;;;;;15.91;66.28;96797.13;5080368;28;20205;-69
2023/04/22 05:57:46;;;;;;;7.10;4.67;;;;;;;15.98;65.49;96806.19;5070728;28;20185;-69
2023/04/22 06:00:39;;;;;;;10.23;5.37;;;;;;;15.73;65.11;96801.03;5086088;28;20209;-68
2023/04/22 06:03:23;;;;;;;9.97;5.10;;;;;;;15.52;65.84;96802.50;5071724;28;20683;-68
2023/04/22 06:05:51;;;;;;;7.13;4.90;;;;;;;15.57;66.06;96805.66;5070698;28;20637;-73
2023/04/22 06:08:19;;;;;;;7.90;5.13;;;;;;;15.72;66.29;96793.31;5090006;28;20748;-67
2023/04/22 06:10:50;;;;;;;8.20;5.93;;;;;;;15.83;65.63;96798.59;5070210;28;20189;-69
2023/04/22 06:13:17;;;;;;;8.07;4.83;;;;;;;15.73;64.99;96785.34;5071819;28;21052;-69
2023/04/22 06:15:44;;;;;;;6.97;5.20;;;;;;;15.93;64.75;96797.84;5052991;28;20680;-68
2023/04/22 06:18:11;;;;;;;12.03;5.87;;;;;;;16.31;63.98;96795.09;5071274;28;20231;-69
2023/04/22 06:20:38;;;;;;;8.37;5.03;;;;;;;16.84;62.39;96801.66;5071479;28;20192;-69
2023/04/22 06:23:05;;;;;;;7.77;4.70;;;;;;;17.01;61.08;96809.09;5088266;28;20232;-68
2023/04/22 06:25:32;;;;;;;7.67;4.70;;;;;;;17.21;60.70;96811.03;5090395;28;20275;-68
2023/04/22 06:28:00;;;;;;;6.70;4.73;;;;;;;17.17;60.84;96804.34;5055300;28;20668;-71
2023/04/22 06:30:27;;;;;;;7.83;4.40;;;;;;;17.34;60.14;96803.91;5072609;28;20207;-69
2023/04/22 06:32:54;;;;;;;6.37;4.87;;;;;;;17.49;59.34;96810.66;5070818;28;20225;-71
2023/04/22 06:35:23;;;;;;;7.13;5.00;;;;;;;17.35;59.60;96805.56;5072144;28;20186;-72
2023/04/22 06:37:56;;;;;;;6.93;4.73;;;;;;;17.22;60.24;96812.72;5089598;28;20694;-68
2023/04/22 06:40:28;;;;;;;11.37;5.00;;;;;;;17.55;60.36;96820.66;5070234;28;20197;-69
2023/04/22 06:43:14;;;;;;;14.70;6.43;;;;;;;17.85;59.06;96813.03;5069854;28;20215;-71
2023/04/22 06:46:09;;;;;;;8.97;5.67;;;;;;;17.72;59.23;96811.50;5064061;28;20218;-69
2023/04/22 06:49:11;;;;;;;6.30;4.17;;;;;;;17.81;57.37;96819.44;5085387;28;20275;-70
2023/04/22 06:52:08;;;;;;;7.73;4.40;;;;;;;17.70;57.93;96821.25;5071339;28;20661;-70
2023/04/22 06:54:40;;;;;;;10.43;5.03;;;;;;;17.67;57.74;96814.47;5070387;28;20209;-71
2023/04/22 06:57:07;;;;;;;9.07;6.10;;;;;;;17.49;57.66;96808.03;5070136;28;20844;-69
2023/04/22 06:59:34;;;;;;;8.27;3.93;;;;;;;17.34;57.29;96827.47;5070283;28;20214;-69
2023/04/22 07:02:02;;;;;;;9.50;5.07;;;;;;;17.49;56.94;96822.88;5069521;28;20244;-70
2023/04/22 07:04:33;;;;;;;11.10;4.17;;;;;;;17.24;57.62;96817.81;5070459;28;20205;-70
2023/04/22 07:07:19;;;;;;;7.77;4.43;;;;;;;17.16;57.50;96815.78;5068831;28;20786;-70
2023/04/22 07:09:47;;;;;;;4.30;3.50;;;;;;;17.25;57.04;96822.13;5069125;28;20217;-70
2023/04/22 07:12:15;;;;;;;10.97;4.57;;;;;;;17.19;56.48;96830.44;5067821;28;20938;-69
2023/04/22 07:14:43;;;;;;;6.23;3.53;;;;;;;16.98;56.10;96830.25;5048678;28;20217;-67
2023/04/22 07:17:11;;;;;;;10.47;3.20;;;;;;;17.06;55.54;96835.75;5067473;28;20276;-69
2023/04/22 07:19:38;;;;;;;7.90;3.53;;;;;;;17.02;56.43;96829.09;5066098;28;20659;-69
2023/04/22 07:22:05;;;;;;;5.40;3.43;;;;;;;16.71;55.89;96832.28;5067506;28;20182;-71
2023/04/22 07:24:36;;;;;;;7.90;3.57;;;;;;;16.74;55.97;96830.28;5066733;28;20182;-70
2023/04/22 07:27:43;;;;;;;6.87;3.77;;;;;;;16.78;55.82;96834.34;5067189;28;20189;-70
2023/04/22 07:30:51;;;;;;;8.10;3.90;;;;;;;16.91;55.58;96829.88;5066857;28;20199;-73
2023/04/22 07:33:18;;;;;;;5.50;3.27;;;;;;;16.84;55.15;96833.03;5048764;28;20285;-72
2023/04/22 07:35:46;;;;;;;7.03;3.70;;;;;;;17.03;54.96;96841.19;5067388;28;20213;-70
2023/04/22 07:38:13;;;;;;;11.13;3.57;;;;;;;17.12;54.88;96835.28;5067392;28;20197;-71
2023/04/22 07:40:40;;;;;;;6.43;2.80;;;;;;;17.22;54.56;96835.44;5031866;28;20190;-69
2023/04/22 07:43:07;;;;;;;10.03;4.23;;;;;;;17.18;54.32;96837.44;5067510;28;20569;-68
2023/04/22 07:45:34;;;;;;;8.37;5.50;;;;;;;17.03;54.89;96842.03;5065787;28;20756;-71
2023/04/22 07:48:03;;;;;;;6.30;3.57;;;;;;;16.78;55.38;96834.34;5067163;28;20315;-69
2023/04/22 07:50:30;;;;;;;9.27;4.07;;;;;;;16.76;55.36;96841.47;5065984;28;20199;-66
2023/04/22 07:52:57;;;;;;;8.27;4.63;;;;;;;16.57;56.01;96837.69;5066901;28;20736;-67
2023/04/22 07:55:24;;;;;;;10.53;4.13;;;;;;;16.36;56.84;96844.44;5066879;28;20260;-67
2023/04/22 07:57:51;;;;;;;7.77;4.20;;;;;;;16.41;55.43;96844.94;5066099;28;20630;-68
2023/04/22 08:00:18;;;;;;;7.00;3.83;;;;;;;16.58;56.04;96845.44;5067067;28;20712;-69
2023/04/22 08:02:46;;;;;;;8.80;4.10;;;;;;;16.50;56.33;96839.06;5065915;28;20191;-71
2023/04/22 08:05:13;;;;;;;9.57;4.67;;;;;;;16.35;55.86;96845.38;5049265;28;20645;-67
2023/04/22 08:07:41;;;;;;;7.60;4.60;;;;;;;16.23;56.50;96828.81;5065657;28;20188;-68
2023/04/22 08:10:08;;;;;;;5.20;3.80;;;;;;;16.65;58.14;96846.63;5067085;28;20289;-69
2023/04/22 08:12:36;;;;;;;5.37;3.17;;;;;;;16.52;57.75;96832.81;5065847;28;20220;-69
2023/04/22 08:15:03;;;;;;;5.37;3.10;;;;;;;16.79;57.30;96835.19;5065970;28;20181;-68
2023/04/22 08:17:30;;;;;;;8.30;4.90;;;;;;;16.71;57.32;96843.56;5066607;28;20197;-68
2023/04/22 08:19:57;;;;;;;7.50;3.80;;;;;;;17.23;55.88;96840.53;5065154;28;20574;-68
2023/04/22 08:22:26;;;;;;;7.33;3.13;;;;;;;16.81;56.39;96841.13;5066561;28;20229;-67
2023/04/22 08:24:53;;;;;;;8.07;4.23;;;;;;;16.83;56.63;96847.91;5065667;28;20182;-68
2023/04/22 08:27:21;;;;;;;6.47;4.53;;;;;;;16.93;56.05;96837.59;5066803;28;20187;-68
2023/04/22 08:29:47;;;;;;;6.30;4.30;;;;;;;17.06;55.59;96844.41;5079925;28;20589;-70
2023/04/22 08:32:15;;;;;;;7.50;4.57;;;;;;;17.16;56.09;96849.81;5075667;28;20185;-68
2023/04/22 08:35:22;;;;;;;7.13;3.57;;;;;;;16.17;57.80;96861.44;5080325;28;20220;-69
2023/04/22 08:38:03;;;;;;;9.03;3.40;;;;;;;15.63;53.83;96852.22;5064119;28;20188;-68
2023/04/22 08:40:30;;;;;;;14.63;4.47;;;;;;;15.97;52.28;96850.72;5076430;28;20262;-66
2023/04/22 08:42:57;;;;;;;10.77;5.07;;;;;;;16.11;49.54;96853.19;5086294;28;20220;-68
2023/04/22 08:45:24;;;;;;;6.73;3.00;;;;;;;15.86;47.79;96850.63;5085716;28;20192;-69
2023/04/22 08:47:52;;;;;;;15.13;6.00;;;;;;;15.96;47.46;96849.88;5050849;28;20854;-69
2023/04/22 08:50:24;;;;;;;15.40;4.87;;;;;;;15.97;46.74;96861.16;5066692;28;20193;-69
2023/04/22 08:52:51;;;;;;;10.20;3.90;;;;;;;16.19;46.20;96851.72;5068044;28;20189;-68
2023/04/22 08:55:18;;;;;;;9.43;3.57;;;;;;;16.25;46.30;96859.09;5085291;28;20605;-69
2023/04/22 08:57:47;;;;;;;9.10;3.50;;;;;;;16.59;47.18;96851.50;5068468;28;20204;-69
2023/04/22 09:00:15;;;;;;;8.83;3.90;;;;;;;16.78;47.00;96857.03;5085952;28;20716;-70
2023/04/22 09:02:44;;;;;;;9.30;4.60;;;;;;;17.05;50.28;96853.22;5085401;28;20184;-73
2023/04/22 09:05:13;;;;;;;11.57;4.90;;;;;;;17.33;52.01;96849.34;5086447;28;20287;-72
2023/04/22 09:07:41;;;;;;;8.20;4.63;;;;;;;17.04;55.24;96848.94;5085228;28;20297;-68
2023/04/22 09:10:10;;;;;;;16.57;7.33;;;;;;;17.32;56.31;96850.31;5086638;28;20194;-72
2023/04/22 09:12:40;;;;;;;11.10;4.50;;;;;;;17.47;52.28;96848.31;5068283;28;20296;-69
2023/04/22 09:15:08;;;;;;;12.67;5.50;;;;;;;17.66;52.86;96844.22;5083269;28;20255;-69
2023/04/22 09:17:37;;;;;;;9.17;5.33;;;;;;;17.76;52.95;96841.72;5086035;28;20257;-68
2023/04/22 09:20:07;;;;;;;9.47;4.80;;;;;;;17.71;53.95;96838.63;5081002;28;20238;-70
2023/04/22 09:22:37;;;;;;;11.03;6.47;;;;;;;17.71;55.69;96843.84;5067842;28;20299;-68
2023/04/22 09:25:05;;;;;;;9.10;3.93;;;;;;;17.72;53.74;96829.81;5084790;28;20207;-68
2023/04/22 09:27:34;;;;;;;8.13;4.43;;;;;;;17.86;53.83;96827.81;5086120;28;20624;-69
2023/04/22 09:30:07;;;;;;;11.67;4.90;;;;;;;17.89;55.55;96821.47;5085200;28;20229;-72
2023/04/22 09:32:35;;;;;;;7.83;4.90;;;;;;;18.19;56.14;96811.19;5067790;28;20274;-68
2023/04/22 09:35:02;;;;;;;8.03;4.40;;;;;;;18.38;53.81;96821.88;5085955;28;20198;-68
2023/04/22 09:37:30;;;;;;;8.33;6.30;;;;;;;18.38;55.02;96815.81;5066169;28;20213;-68
2023/04/22 09:40:17;;;;;;;5.27;3.50;;;;;;;18.13;50.21;96810.84;5086580;28;20215;-68
2023/04/22 09:42:50;;;;;;;7.50;3.97;;;;;;;18.29;50.71;96813.91;5084714;28;20223;-70
2023/04/22 09:45:38;;;;;;;9.20;3.73;;;;;;;18.64;49.89;96806.69;5063343;28;20257;-70
2023/04/22 09:48:13;;;;;;;9.23;3.60;;;;;;;18.53;48.89;96815.41;5085910;28;20202;-68
2023/04/22 09:50:49;;;;;;;9.53;3.93;;;;;;;17.99;49.81;96800.63;5084960;28;20191;-71
2023/04/22 09:53:18;;;;;;;6.43;4.37;;;;;;;18.49;49.68;96793.03;5086200;28;20203;-69
2023/04/22 09:55:48;;;;;;;7.67;3.77;;;;;;;18.90;47.64;96802.75;5085059;28;20201;-69
2023/04/22 09:58:58;;;;;;;7.20;3.53;;;;;;;19.04;46.63;96805.06;5086254;28;20223;-71
2023/04/22 10:01:43;;;;;;;6.87;3.67;;;;;;;18.97;46.82;96806.53;5089215;28;20198;-70
2023/04/22 10:04:12;;;;;;;4.67;3.00;;;;;;;18.73;45.30;96789.38;5088494;28;20308;-69
2023/04/22 10:06:40;;;;;;;12.10;5.43;;;;;;;18.46;46.42;96789.84;5070991;28;20249;-69
2023/04/22 10:09:08;;;;;;;12.40;3.47;;;;;;;17.96;46.73;96787.75;5088681;28;20187;-68
2023/04/22 10:11:36;;;;;;;5.60;3.47;;;;;;;17.99;47.43;96805.88;5088635;28;20668;-70
2023/04/22 10:14:04;;;;;;;6.73;3.83;;;;;;;18.06;46.50;96778.22;5089545;28;20188;-69
2023/04/22 10:16:33;;;;;;;10.67;3.57;;;;;;;18.49;47.39;96776.44;5088271;28;20628;-68
2023/04/22 10:19:03;;;;;;;8.30;3.10;;;;;;;18.14;44.80;96802.00;5089401;28;20231;-69
2023/04/22 10:21:31;;;;;;;6.57;3.23;;;;;;;18.11;44.14;96783.94;5069771;28;20590;-68
2023/04/22 10:23:59;;;;;;;7.10;3.53;;;;;;;17.93;45.38;96774.91;5089281;28;20222;-68
2023/04/22 10:26:41;;;;;;;5.10;3.17;;;;;;;17.71;46.21;96729.44;5088491;28;20200;-67
2023/04/22 10:29:15;;;;;;;10.70;3.30;;;;;;;17.85;45.58;96778.13;5088200;28;20553;-69
2023/04/22 10:31:44;;;;;;;7.60;3.43;;;;;;;17.67;45.12;96782.19;5089474;28;20564;-69
2023/04/22 10:34:13;;;;;;;9.40;3.53;;;;;;;17.46;45.41;96775.97;5087741;28;20260;-69
2023/04/22 10:37:05;;;;;;;7.83;3.47;;;;;;;17.56;45.79;96775.16;5089067;28;20200;-67
2023/04/22 10:39:33;;;;;;;6.63;3.13;;;;;;;17.51;46.98;96777.31;5088869;28;20213;-67
2023/04/22 10:42:05;;;;;;;8.70;4.27;;;;;;;17.48;46.35;96787.97;5088655;28;20658;-67
2023/04/22 10:44:49;;;;;;;11.50;3.90;;;;;;;17.46;47.47;96789.88;5089085;28;20193;-69
2023/04/22 10:47:36;;;;;;;6.60;3.67;;;;;;;17.16;47.51;96794.84;5088049;28;20758;-69
2023/04/22 10:50:23;;;;;;;6.70;3.30;;;;;;;17.25;47.08;96795.94;5090549;28;20213;-71
2023/04/22 10:52:58;;;;;;;9.30;3.93;;;;;;;17.23;47.04;96800.47;5071602;28;20648;-72
2023/04/22 10:55:49;;;;;;;17.00;4.33;;;;;;;17.38;47.98;96805.34;5069481;28;20610;-68
2023/04/22 10:58:21;;;;;;;12.60;5.17;;;;;;;17.33;48.85;96810.09;5088855;28;20207;-68
2023/04/22 11:00:56;;;;;;;17.73;8.73;;;;;;;17.20;51.00;96814.63;5070089;28;20215;-70
2023/04/22 11:03:26;;;;;;;13.23;5.77;;;;;;;17.31;52.16;96821.66;5088357;28;20185;-71
2023/04/22 11:06:52;;;;;;;11.57;5.20;;;;;;;17.24;51.89;96823.91;5088758;28;20213;-69
2023/04/22 11:09:38;;;;;;;11.80;5.03;;;;;;;17.12;51.25;96821.38;5071622;28;20332;-70
2023/04/22 11:12:33;;;;;;;7.43;3.53;;;;;;;16.66;50.97;96840.47;5085248;28;20297;-70
2023/04/22 11:15:11;;;;;;;8.27;3.47;;;;;;;16.08;51.65;96832.50;5068178;28;20286;-71
2023/04/22 11:17:41;;;;;;;7.73;3.73;;;;;;;16.10;52.62;96846.28;5066706;28;20643;-69
2023/04/22 11:20:09;;;;;;;7.33;4.60;;;;;;;15.97;54.44;96838.47;5059747;28;20239;-70
2023/04/22 11:22:38;;;;;;;6.97;3.50;;;;;;;15.64;56.22;96838.19;5067001;28;20281;-70
2023/04/22 11:25:07;;;;;;;7.40;4.00;;;;;;;15.63;57.10;96840.94;5048713;28;20232;-70
2023/04/22 11:27:34;;;;;;;11.00;5.90;;;;;;;15.62;59.07;96827.03;5049920;28;20204;-73
2023/04/22 11:30:13;;;;;;;14.10;5.57;;;;;;;15.91;58.60;96851.97;5066320;28;20633;-71
2023/04/22 11:32:46;;;;;;;6.67;4.70;;;;;;;16.22;59.47;96845.41;5067537;28;20212;-70
2023/04/22 11:35:25;;;;;;;11.43;8.13;;;;;;;16.17;60.70;96845.75;5048918;28;20574;-68
2023/04/22 11:38:04;;;;;;;10.17;7.30;;;;;;;16.11;61.96;96851.41;5049099;28;20192;-69
2023/04/22 11:40:40;;;;;;;10.57;6.80;;;;;;;16.23;61.91;96858.38;5076356;28;20579;-68
2023/04/22 11:43:11;;;;;;;11.37;5.83;;;;;;;16.22;62.84;96861.94;5082324;28;20668;-70
2023/04/22 11:45:39;;;;;;;8.47;4.20;;;;;;;16.23;61.66;96862.78;5069684;28;20610;-70
2023/04/22 11:48:09;;;;;;;11.27;4.90;;;;;;;16.28;63.12;96873.72;5086186;28;20586;-71
2023/04/22 11:50:39;;;;;;;10.43;5.20;;;;;;;16.32;62.99;96867.34;5070516;28;20768;-70